Time;durP1;ratioP1;P1;durP2;ratioP2;P2;SDS_P1;SDS_P2;PMS_P1;PMS_P2;Temp;Humidity;BMP_temperature;BMP_pressure;BME280_temperature;BME280_humidity;BME280_pressure;Samples;Min_cycle;Max_cycle;Signal;HPM_P1;HPM_P2
2022/08/22 00:01:14;;;;;;;2.70;2.33;;;;;;;17.24;100.00;99586.00;5550318;32;33953;-78
2022/08/22 00:04:49;;;;;;;3.33;2.50;;;;;;;17.20;100.00;99585.66;5551067;32;33977;-76
2022/08/22 00:08:22;;;;;;;3.87;2.50;;;;;;;17.17;100.00;99572.72;5551004;32;34871;-75
2022/08/22 00:11:51;;;;;;;3.50;2.80;;;;;;;17.17;100.00;99583.44;5551222;32;34088;-76
2022/08/22 00:15:05;;;;;;;3.17;2.57;;;;;;;17.20;100.00;99588.31;5551046;32;34578;-76
2022/08/22 00:18:25;;;;;;;3.97;2.45;;;;;;;17.18;100.00;99577.03;5550967;32;34037;-76
2022/08/22 00:21:40;;;;;;;3.42;2.67;;;;;;;17.19;100.00;99584.00;5550989;32;34114;-76
2022/08/22 00:25:13;;;;;;;2.92;2.28;;;;;;;17.19;100.00;99581.31;5550940;32;34593;-73
2022/08/22 00:28:37;;;;;;;3.78;2.35;;;;;;;17.25;100.00;99585.78;5550979;32;33950;-76
2022/08/22 00:31:49;;;;;;;2.70;2.10;;;;;;;17.23;100.00;99587.84;5549560;32;32433;-75
2022/08/22 00:35:04;;;;;;;3.62;2.00;;;;;;;17.23;100.00;99587.84;5550660;32;33980;-73
2022/08/22 00:38:15;;;;;;;2.22;1.90;;;;;;;17.28;100.00;99587.19;5551071;32;33924;-74
2022/08/22 00:41:38;;;;;;;2.78;1.87;;;;;;;17.23;100.00;99593.22;5550732;32;33664;-75
2022/08/22 00:44:56;;;;;;;3.87;1.85;;;;;;;17.31;100.00;99584.88;5550755;32;34005;-74
2022/08/22 00:48:20;;;;;;;1.70;1.60;;;;;;;17.24;100.00;99586.81;5550664;32;33903;-74
2022/08/22 00:51:26;;;;;;;2.10;1.50;;;;;;;17.20;100.00;99580.28;5550629;32;34066;-74
2022/08/22 00:54:51;;;;;;;3.95;1.62;;;;;;;17.23;100.00;99587.84;5550017;32;32723;-74
2022/08/22 00:58:14;;;;;;;1.75;1.40;;;;;;;17.19;100.00;99591.22;5550553;32;33953;-74
2022/08/22 01:01:25;;;;;;;2.95;1.50;;;;;;;17.16;100.00;99586.34;5550666;32;34066;-74
2022/08/22 01:04:48;;;;;;;1.40;1.30;;;;;;;17.15;100.00;99590.06;5550694;32;33939;-74
2022/08/22 01:08:22;;;;;;;1.58;1.20;;;;;;;17.21;100.00;99587.28;5550576;32;34273;-74
2022/08/22 01:11:57;;;;;;;1.70;1.20;;;;;;;17.26;100.00;99590.09;5550252;32;33942;-74
2022/08/22 01:15:07;;;;;;;2.58;1.12;;;;;;;17.27;100.00;99590.91;5550318;32;33714;-73
2022/08/22 01:18:41;;;;;;;1.60;1.40;;;;;;;17.27;100.00;99591.72;5550314;32;33902;-74
2022/08/22 01:22:03;;;;;;;3.85;1.60;;;;;;;17.19;100.00;99588.53;5550464;32;33927;-74
2022/08/22 01:25:18;;;;;;;2.55;1.30;;;;;;;17.18;100.00;99585.06;5550307;32;35309;-74
2022/08/22 01:29:03;;;;;;;2.33;1.25;;;;;;;17.28;100.00;99581.84;5550304;32;33985;-74
2022/08/22 01:32:38;;;;;;;1.80;1.40;;;;;;;17.25;100.00;99590.31;5550117;32;34616;-74
2022/08/22 01:36:15;;;;;;;5.72;1.40;;;;;;;17.15;100.00;99582.00;5539819;32;34132;-74
2022/08/22 01:39:45;;;;;;;1.58;1.40;;;;;;;17.11;100.00;99586.19;5550170;32;34246;-74
2022/08/22 01:42:54;;;;;;;1.87;1.40;;;;;;;17.12;100.00;99582.50;5549627;32;35180;-74
2022/08/22 01:46:08;;;;;;;4.85;1.33;;;;;;;17.15;100.00;99588.19;5548992;32;33940;-74
2022/08/22 01:49:35;;;;;;;4.15;1.55;;;;;;;17.17;100.00;99585.28;5549870;32;34842;-74
2022/08/22 01:52:51;;;;;;;2.83;1.40;;;;;;;17.14;100.00;99577.69;5549284;32;33945;-74
2022/08/22 01:56:17;;;;;;;2.55;1.48;;;;;;;17.22;100.00;99586.25;5549964;32;34652;-74
2022/08/22 01:59:29;;;;;;;1.65;1.50;;;;;;;17.28;100.00;99587.19;5549810;32;34792;-74
2022/08/22 02:02:53;;;;;;;2.85;1.40;;;;;;;17.16;100.00;99592.53;5549773;32;33985;-74
2022/08/22 02:06:10;;;;;;;2.17;1.27;;;;;;;17.23;100.00;99590.53;5549743;32;33918;-75
2022/08/22 02:09:18;;;;;;;;;;;;;;;17.17;100.00;99585.28;5550014;32;33953;-74
2022/08/22 02:12:34;;;;;;;2.12;1.30;;;;;;;17.17;100.00;99579.94;5549484;32;34235;-74
2022/08/22 02:15:40;;;;;;;3.28;1.50;;;;;;;17.17;100.00;99582.63;5549584;32;34300;-74
2022/08/22 02:19:03;;;;;;;3.87;1.77;;;;;;;17.32;100.00;99580.31;5549497;32;34613;-74
2022/08/22 02:22:29;;;;;;;1.37;1.27;;;;;;;17.23;100.00;99579.03;5548721;32;32680;-74
2022/08/22 02:25:47;;;;;;;2.90;1.80;;;;;;;17.20;100.00;99576.78;5549682;32;33972;-74
2022/08/22 02:29:03;;;;;;;1.90;1.70;;;;;;;17.24;100.00;99575.28;5549724;32;34598;-74
2022/08/22 02:32:29;;;;;;;3.35;1.90;;;;;;;17.29;100.00;99578.09;5544581;32;135100;-74
2022/08/22 02:35:53;;;;;;;2.40;1.80;;;;;;;17.26;100.00;99578.56;5549122;32;33905;-74
2022/08/22 02:39:33;;;;;;;1.98;1.80;;;;;;;17.27;100.00;99569.47;5549101;32;33938;-73
2022/08/22 02:42:39;;;;;;;2.97;2.10;;;;;;;17.21;100.00;99567.69;5549021;32;34657;-73
2022/08/22 02:46:04;;;;;;;2.65;2.05;;;;;;;17.28;100.00;99566.53;5548991;32;34619;-74
2022/08/22 02:49:24;;;;;;;2.83;2.20;;;;;;;17.20;100.00;99571.44;5548952;32;34634;-74
2022/08/22 02:52:52;;;;;;;5.32;2.20;;;;;;;17.22;100.00;99564.81;5549112;32;34078;-74
2022/08/22 02:56:17;;;;;;;4.95;2.20;;;;;;;17.09;100.00;99564.19;5550237;32;34193;-74
2022/08/22 02:59:26;;;;;;;3.90;2.50;;;;;;;17.04;100.00;99564.84;5551611;32;33887;-74
2022/08/22 03:02:36;;;;;;;4.57;2.30;;;;;;;17.01;100.00;99565.31;5551571;32;34701;-74
2022/08/22 03:05:44;;;;;;;4.82;2.62;;;;;;;17.01;100.00;99570.69;5551843;32;34010;-74
2022/08/22 03:09:13;;;;;;;2.85;2.50;;;;;;;17.01;100.00;99573.38;5550954;32;34034;-74
2022/08/22 03:12:31;;;;;;;3.22;2.70;;;;;;;17.01;100.00;99572.53;5551239;32;33731;-74
2022/08/22 03:15:35;;;;;;;3.58;3.00;;;;;;;17.05;100.00;99571.84;5551579;32;34049;-74
2022/08/22 03:19:07;;;;;;;2.78;2.58;;;;;;;17.12;100.00;99583.31;5551482;32;34008;-74
2022/08/22 03:22:28;;;;;;;5.90;2.62;;;;;;;17.20;100.00;99590.19;5551364;32;34585;-75
2022/08/22 03:25:59;;;;;;;4.60;3.10;;;;;;;17.30;100.00;99588.59;5551323;32;34750;-74
2022/08/22 03:29:08;;;;;;;4.95;3.00;;;;;;;17.29;100.00;99588.81;5551226;32;34539;-74
2022/08/22 03:32:13;;;;;;;3.65;3.03;;;;;;;17.33;100.00;99587.31;5551564;32;34831;-74
2022/08/22 03:35:24;;;;;;;4.07;3.20;;;;;;;17.42;100.00;99588.63;5550501;32;34149;-74
2022/08/22 03:38:33;;;;;;;3.58;3.28;;;;;;;17.41;100.00;99600.38;5551335;32;34044;-74
2022/08/22 03:41:54;;;;;;;5.62;3.10;;;;;;;17.34;100.00;99602.34;5551357;32;33911;-74
2022/08/22 03:45:20;;;;;;;3.47;3.17;;;;;;;17.45;100.00;99593.50;5551245;32;33947;-73
2022/08/22 03:48:44;;;;;;;5.95;3.12;;;;;;;17.35;100.00;99599.44;5551076;32;34740;-74
2022/08/22 03:52:06;;;;;;;4.55;3.78;;;;;;;17.41;100.00;99594.19;5551073;32;33954;-74
2022/08/22 03:55:38;;;;;;;4.43;3.37;;;;;;;17.35;100.00;99595.94;5551369;32;33929;-73
2022/08/22 03:59:06;;;;;;;5.35;3.92;;;;;;;17.34;100.00;99597.78;5483646;32;34001;-73
2022/08/22 04:02:48;;;;;;;6.80;4.05;;;;;;;17.35;100.00;99598.63;5550990;32;34621;-73
2022/08/22 04:06:00;;;;;;;;;;;;;;;17.43;100.00;99594.78;5550366;32;33478;-73
2022/08/22 04:09:18;;;;;;;4.82;3.85;;;;;;;17.54;100.00;99602.84;5551111;32;34303;-74
2022/08/22 04:13:00;;;;;;;5.55;3.95;;;;;;;17.58;100.00;99606.69;5550741;32;34003;-73
2022/08/22 04:16:27;;;;;;;5.62;3.62;;;;;;;17.58;100.00;99593.28;5550032;32;32681;-73
2022/08/22 04:19:59;;;;;;;4.00;3.60;;;;;;;17.66;100.00;99601.03;5550917;32;33917;-73
2022/08/22 04:23:08;;;;;;;5.78;3.58;;;;;;;17.70;100.00;99604.06;5550812;32;34736;-73
2022/08/22 04:26:22;;;;;;;4.45;3.20;;;;;;;17.83;100.00;99606.50;5550744;32;34537;-74
2022/08/22 04:29:38;;;;;;;4.30;3.35;;;;;;;17.93;100.00;99608.59;5551290;32;34032;-74
2022/08/22 04:32:47;;;;;;;4.45;3.00;;;;;;;17.94;100.00;99607.56;5550708;32;34121;-75
2022/08/22 04:36:17;;;;;;;5.07;3.35;;;;;;;17.92;100.00;99618.50;5549687;32;34786;-74
2022/08/22 04:39:33;;;;;;;4.47;3.00;;;;;;;17.94;100.00;99616.41;5550703;32;33943;-75
2022/08/22 04:42:51;;;;;;;5.37;3.10;;;;;;;17.99;100.00;99618.41;5550709;32;34002;-74
2022/08/22 04:46:02;;;;;;;4.53;2.80;;;;;;;18.07;100.00;99621.53;5550029;32;33227;-73
2022/08/22 04:49:13;;;;;;;3.62;2.87;;;;;;;18.04;100.00;99622.03;5549736;32;34347;-74
2022/08/22 04:52:34;;;;;;;4.95;2.70;;;;;;;18.12;100.00;99621.66;5550806;32;34295;-74
2022/08/22 04:56:01;;;;;;;4.72;3.00;;;;;;;18.33;100.00;99622.91;5550320;32;34649;-73
2022/08/22 04:59:16;;;;;;;3.30;2.95;;;;;;;18.50;100.00;99623.78;5550379;32;34521;-74
2022/08/22 05:02:22;;;;;;;6.03;3.17;;;;;;;18.52;100.00;99621.72;5550289;32;34001;-73
2022/08/22 05:05:35;;;;;;;5.40;3.35;;;;;;;18.61;100.00;99630.22;5549753;32;32545;-74
2022/08/22 05:08:39;;;;;;;4.65;3.33;;;;;;;18.66;100.00;99622.28;5536322;32;32863;-75
2022/08/22 05:11:45;;;;;;;6.07;3.83;;;;;;;18.74;100.00;99629.13;5550004;32;34162;-75
2022/08/22 05:14:56;;;;;;;4.22;2.95;;;;;;;18.65;100.00;99621.47;5550235;32;34722;-75
2022/08/22 05:18:08;;;;;;;9.35;3.25;;;;;;;18.67;100.00;99629.28;5550304;32;33894;-74
2022/08/22 05:21:16;;;;;;;8.57;3.50;;;;;;;18.66;100.00;99638.41;5549520;32;33108;-74
2022/08/22 05:24:27;;;;;;;5.43;3.08;;;;;;;18.70;100.00;99636.84;5550164;32;34294;-73
2022/08/22 05:27:34;;;;;;;4.10;3.20;;;;;;;18.73;100.00;99639.09;5550215;32;34303;-74
2022/08/22 05:30:38;;;;;;;6.37;3.85;;;;;;;18.82;100.00;99639.53;5549989;32;34007;-74
2022/08/22 05:33:46;;;;;;;5.80;3.40;;;;;;;18.78;100.00;99649.94;5549864;32;33954;-73
2022/08/22 05:37:19;;;;;;;4.12;3.30;;;;;;;18.78;100.00;99644.56;5549443;32;33984;-74
2022/08/22 05:40:25;;;;;;;5.22;3.95;;;;;;;18.95;100.00;99645.44;5543765;32;34451;-73
2022/08/22 05:43:31;;;;;;;4.28;3.28;;;;;;;18.98;100.00;99660.25;5549589;32;34031;-73
2022/08/22 05:46:44;;;;;;;5.68;3.37;;;;;;;19.04;100.00;99661.97;5549814;32;34015;-73
2022/08/22 05:50:03;;;;;;;8.65;4.25;;;;;;;18.96;100.00;99659.69;5549672;32;34227;-73
2022/08/22 05:53:11;;;;;;;7.72;3.80;;;;;;;19.02;100.00;99658.72;5548453;32;32697;-73
2022/08/22 05:56:37;;;;;;;7.28;3.28;;;;;;;19.25;100.00;99663.19;5549363;32;34030;-73
2022/08/22 05:59:46;;;;;;;5.90;3.33;;;;;;;19.48;100.00;99666.59;5549723;32;34414;-73
2022/08/22 06:03:02;;;;;;;4.30;3.28;;;;;;;19.67;100.00;99671.72;5549617;32;34056;-72
2022/08/22 06:06:15;;;;;;;6.72;3.50;;;;;;;19.86;100.00;99671.25;5549585;32;35127;-72
2022/08/22 06:10:07;;;;;;;4.97;2.85;;;;;;;20.04;100.00;99674.75;5549621;32;34088;-73
2022/08/22 06:13:24;;;;;;;5.07;3.17;;;;;;;20.16;100.00;99678.16;5548605;32;34121;-74
2022/08/22 06:16:49;;;;;;;7.78;3.37;;;;;;;20.35;100.00;99674.97;5549417;32;34061;-74
2022/08/22 06:19:53;;;;;;;5.60;3.30;;;;;;;20.33;100.00;99687.06;5549498;32;34083;-72
2022/08/22 06:22:59;;;;;;;5.62;3.53;;;;;;;20.42;100.00;99680.19;5549230;32;35279;-72
2022/08/22 06:26:04;;;;;;;4.45;3.37;;;;;;;20.65;100.00;99681.84;5548914;32;33915;-73
2022/08/22 06:29:08;;;;;;;9.52;3.78;;;;;;;20.66;100.00;99678.06;5548953;32;34084;-73
2022/08/22 06:32:15;;;;;;;5.45;3.30;;;;;;;20.28;100.00;99682.38;5551637;32;34052;-72
2022/08/22 06:39:34;;;;;;;7.30;4.40;;;;;;;20.98;100.00;99689.78;5550832;32;33256;-72
2022/08/22 06:42:41;;;;;;;5.47;3.83;;;;;;;21.20;100.00;99684.41;5551591;32;34663;-72
2022/08/22 06:45:45;;;;;;;6.55;4.50;;;;;;;21.39;100.00;99690.25;5551185;32;34376;-72
2022/08/22 06:48:49;;;;;;;5.62;4.22;;;;;;;20.87;100.00;99695.28;5551751;32;34607;-73
2022/08/22 06:51:59;;;;;;;6.10;4.60;;;;;;;21.31;100.00;99699.59;5551515;32;33964;-72
2022/08/22 06:55:05;;;;;;;7.53;4.90;;;;;;;21.38;100.00;99696.72;5551454;32;34013;-73
2022/08/22 06:58:19;;;;;;;5.40;4.30;;;;;;;21.61;100.00;99693.69;5550720;32;33148;-73
2022/08/22 07:01:29;;;;;;;9.15;4.32;;;;;;;21.94;100.00;99688.06;5551413;32;34030;-73
2022/08/22 07:04:32;;;;;;;8.13;4.10;;;;;;;22.66;100.00;99689.31;5551497;32;33890;-72
2022/08/22 07:07:36;;;;;;;7.00;3.72;;;;;;;23.00;100.00;99690.56;5551120;32;33918;-72
2022/08/22 07:11:10;;;;;;;6.70;3.97;;;;;;;22.38;100.00;99691.34;5550190;32;34408;-71
2022/08/22 07:14:15;;;;;;;8.13;4.30;;;;;;;22.54;100.00;99694.94;5542850;32;33780;-72
2022/08/22 07:17:31;;;;;;;7.60;4.47;;;;;;;21.71;100.00;99688.37;5550252;32;33937;-71
2022/08/22 07:20:44;;;;;;;6.60;4.50;;;;;;;21.73;100.00;99697.06;5551301;32;34381;-72
2022/08/22 07:23:48;;;;;;;6.45;4.50;;;;;;;22.17;100.00;99697.69;5551287;32;33894;-71
2022/08/22 07:27:10;;;;;;;6.62;4.20;;;;;;;21.85;100.00;99708.47;5551047;32;34010;-71
2022/08/22 07:30:14;;;;;;;;;;;;;;;22.06;100.00;99707.62;5551252;32;33894;-72
2022/08/22 07:33:38;;;;;;;6.20;3.92;;;;;;;21.89;100.00;99706.06;5550216;32;34179;-73
2022/08/22 07:37:00;;;;;;;6.37;3.83;;;;;;;21.41;100.00;99702.41;5550763;32;34732;-73
2022/08/22 07:40:15;;;;;;;7.25;4.37;;;;;;;21.31;100.00;99702.31;5550369;32;32494;-71
2022/08/22 07:43:28;;;;;;;9.18;5.00;;;;;;;22.45;100.00;99705.44;5549312;32;32489;-72
2022/08/22 07:46:59;;;;;;;7.30;4.43;;;;;;;22.40;100.00;99704.59;5550820;32;33981;-71
2022/08/22 07:50:06;;;;;;;7.00;4.18;;;;;;;22.77;100.00;99709.94;5544340;32;34439;-73
2022/08/22 07:53:29;;;;;;;9.05;4.82;;;;;;;22.51;100.00;99714.41;5551093;32;34390;-71
2022/08/22 07:56:41;;;;;;;8.65;4.87;;;;;;;22.12;100.00;99710.34;5550789;32;34032;-71
2022/08/22 07:59:51;;;;;;;11.10;5.30;;;;;;;23.03;100.00;99714.41;5549465;32;33330;-71
2022/08/22 08:03:05;;;;;;;7.85;4.53;;;;;;;23.62;99.57;99709.44;5550366;32;32398;-71
2022/08/22 08:06:08;;;;;;;10.05;4.62;;;;;;;24.76;93.93;99713.38;5550383;32;32403;-71
2022/08/22 08:09:16;;;;;;;7.07;3.90;;;;;;;24.67;91.76;99709.59;5549918;32;32347;-72
2022/08/22 08:12:53;;;;;;;7.78;4.40;;;;;;;24.20;92.65;99708.09;5550237;32;33989;-71
2022/08/22 08:16:07;;;;;;;8.95;4.90;;;;;;;24.18;95.69;99718.37;5542531;32;33610;-72
2022/08/22 08:19:13;;;;;;;6.87;4.30;;;;;;;24.39;92.56;99721.06;5550451;32;33926;-71
2022/08/22 08:22:21;;;;;;;7.45;4.10;;;;;;;25.45;85.22;99718.75;5549892;32;32782;-73
2022/08/22 08:25:31;;;;;;;6.65;4.20;;;;;;;26.03;82.29;99727.06;5550078;32;33227;-72
2022/08/22 08:28:43;;;;;;;9.40;4.80;;;;;;;26.77;79.14;99729.28;5550540;32;34012;-73
2022/08/22 08:31:46;;;;;;;10.70;4.78;;;;;;;25.61;80.67;99719.47;5550661;32;35031;-73
2022/08/22 08:34:51;;;;;;;9.63;5.50;;;;;;;24.56;87.07;99719.66;5550316;32;34590;-73
2022/08/22 08:38:17;;;;;;;9.98;4.68;;;;;;;23.57;94.08;99714.84;5549522;32;32350;-71
2022/08/22 08:41:55;;;;;;;11.55;4.70;;;;;;;23.90;92.42;99708.06;5549128;32;33435;-72
2022/08/22 08:45:27;;;;;;;7.07;4.07;;;;;;;24.37;90.45;99709.66;5550392;32;34299;-71
2022/08/22 08:49:11;;;;;;;8.95;5.45;;;;;;;24.24;89.55;99714.59;5549898;32;33933;-72
2022/08/22 08:52:32;;;;;;;8.90;4.78;;;;;;;23.88;93.97;99717.53;5542153;32;33990;-73
2022/08/22 08:56:04;;;;;;;7.43;5.18;;;;;;;23.39;97.46;99720.69;5550113;32;34990;-72
2022/08/22 08:59:31;;;;;;;14.75;5.12;;;;;;;23.82;96.17;99714.00;5549447;32;33259;-70
2022/08/22 09:03:11;;;;;;;8.50;4.78;;;;;;;25.12;89.72;99719.50;5550181;32;35184;-71
2022/08/22 09:06:33;;;;;;;12.02;6.03;;;;;;;25.17;88.94;99716.75;5522892;32;33990;-72
2022/08/22 09:10:15;;;;;;;9.85;5.80;;;;;;;25.19;86.23;99711.84;5550021;32;34274;-71
2022/08/22 09:13:36;;;;;;;8.30;5.57;;;;;;;25.32;86.48;99722.06;5549317;32;33408;-70
2022/08/22 09:16:45;;;;;;;11.98;6.28;;;;;;;24.73;88.35;99722.06;5549305;32;34285;-71
2022/08/22 09:20:33;;;;;;;9.35;5.95;;;;;;;24.36;90.13;99705.31;5549363;32;32818;-72
2022/08/22 09:24:08;;;;;;;12.95;5.60;;;;;;;24.58;88.40;99703.94;5550288;32;33897;-72
2022/08/22 09:27:35;;;;;;;7.00;4.65;;;;;;;25.59;84.03;99710.00;5549680;32;34677;-71
2022/08/22 09:31:01;;;;;;;10.52;5.07;;;;;;;27.38;75.45;99705.94;5549190;32;34358;-72
2022/08/22 09:34:32;;;;;;;12.13;5.37;;;;;;;28.04;71.67;99709.28;5549135;32;32738;-73
2022/08/22 09:37:56;;;;;;;8.75;4.97;;;;;;;26.83;74.86;99711.81;5549884;32;33895;-73
2022/08/22 09:41:09;;;;;;;9.05;4.85;;;;;;;26.42;76.98;99705.22;5549879;32;34594;-73
2022/08/22 09:44:19;;;;;;;6.32;4.78;;;;;;;26.43;75.39;99706.84;5549740;32;34583;-71
2022/08/22 09:47:34;;;;;;;6.57;4.35;;;;;;;25.34;76.89;99708.22;5549883;32;34434;-73
2022/08/22 09:50:59;;;;;;;7.15;5.05;;;;;;;25.08;79.75;99713.78;5549530;32;35329;-72
2022/08/22 09:54:48;;;;;;;7.90;5.12;;;;;;;24.93;82.04;99711.13;5549098;32;34148;-73
2022/08/22 09:58:04;;;;;;;8.15;5.07;;;;;;;24.70;85.08;99709.03;5549317;32;33691;-72
2022/08/22 10:01:27;;;;;;;9.57;3.55;;;;;;;24.50;86.94;99714.50;5549724;32;34075;-70
2022/08/22 10:04:55;;;;;;;8.32;3.92;;;;;;;24.61;83.61;99711.50;5547500;32;33949;-72
2022/08/22 10:08:09;;;;;;;13.52;3.60;;;;;;;24.78;82.65;99713.91;5549713;32;34011;-72
2022/08/22 10:11:29;;;;;;;7.32;4.03;;;;;;;24.89;85.37;99709.25;5537646;32;33454;-71
2022/08/22 10:14:44;;;;;;;7.00;3.62;;;;;;;24.95;85.85;99716.31;5548480;32;32442;-71
2022/08/22 10:18:34;;;;;;;6.62;4.25;;;;;;;25.22;84.29;99714.00;5549466;32;34050;-71
2022/08/22 10:22:06;;;;;;;8.25;3.60;;;;;;;25.22;85.42;99721.34;5549279;32;34091;-71
2022/08/22 10:25:34;;;;;;;8.63;3.80;;;;;;;25.26;83.44;99722.41;5548727;32;33299;-71
2022/08/22 10:28:47;;;;;;;7.55;3.92;;;;;;;25.50;82.73;99726.87;5549280;32;33993;-71
2022/08/22 10:32:03;;;;;;;5.30;3.83;;;;;;;25.86;78.67;99726.63;5548491;32;33400;-71
2022/08/22 10:35:42;;;;;;;6.85;3.45;;;;;;;25.69;82.00;99721.63;5548501;32;33887;-71
2022/08/22 10:38:51;;;;;;;6.37;3.17;;;;;;;25.76;78.56;99722.09;5515646;32;32597;-71
2022/08/22 10:42:08;;;;;;;5.28;3.70;;;;;;;25.68;75.62;99732.75;5548891;32;34817;-71
2022/08/22 10:45:26;;;;;;;6.35;3.10;;;;;;;26.20;74.24;99724.69;5548315;32;34463;-71
2022/08/22 10:48:45;;;;;;;10.02;2.97;;;;;;;26.58;69.51;99723.00;5547776;32;32614;-71
2022/08/22 10:51:56;;;;;;;5.40;2.60;;;;;;;27.42;67.59;99726.87;5548425;32;34330;-70
2022/08/22 10:55:12;;;;;;;5.20;3.00;;;;;;;28.25;64.75;99725.31;5548768;32;34419;-71
2022/08/22 10:58:24;;;;;;;6.30;3.45;;;;;;;29.40;58.34;99726.87;5548515;32;34654;-71
2022/08/22 11:01:32;;;;;;;7.07;3.25;;;;;;;30.12;56.87;99722.12;5547763;32;32779;-70
2022/08/22 11:04:58;;;;;;;8.20;3.15;;;;;;;28.98;58.99;99719.84;5547972;32;33691;-70
2022/08/22 11:08:18;;;;;;;7.50;3.35;;;;;;;29.07;59.14;99714.47;5548466;32;34537;-73
2022/08/22 11:11:42;;;;;;;5.93;3.37;;;;;;;28.70;59.36;99713.56;5548437;32;34230;-71
2022/08/22 11:15:14;;;;;;;6.78;3.40;;;;;;;29.70;57.83;99701.56;5547863;32;34123;-71
2022/08/22 11:19:01;;;;;;;6.85;3.50;;;;;;;29.75;57.40;99704.16;5539060;32;33371;-70
2022/08/22 11:22:29;;;;;;;6.32;4.07;;;;;;;29.41;56.77;99706.63;5551247;32;33984;-70
2022/08/22 11:25:42;;;;;;;7.62;3.95;;;;;;;29.41;58.09;99708.53;5551194;32;34079;-71
2022/08/22 11:29:12;;;;;;;7.65;3.17;;;;;;;29.41;58.34;99708.53;5550664;32;32522;-71
2022/08/22 11:32:29;;;;;;;6.22;3.78;;;;;;;30.29;55.08;99706.94;5550403;32;32621;-71
2022/08/22 11:35:38;;;;;;;7.40;4.05;;;;;;;28.97;58.10;99701.00;5551023;32;33824;-70
2022/08/22 11:39:04;;;;;;;8.15;3.80;;;;;;;28.98;57.65;99702.63;5551200;32;35201;-71
2022/08/22 11:42:32;;;;;;;6.65;3.70;;;;;;;29.05;57.36;99695.63;5551064;32;35282;-71
2022/08/22 11:45:47;;;;;;;6.40;4.00;;;;;;;31.74;49.73;99695.56;5549749;32;33017;-71
2022/08/22 11:49:15;;;;;;;9.25;4.05;;;;;;;29.68;53.43;99692.03;5550532;32;33342;-71
2022/08/22 11:52:51;;;;;;;7.05;3.80;;;;;;;28.87;57.72;99688.37;5550249;32;33222;-71
2022/08/22 11:56:00;;;;;;;6.87;3.97;;;;;;;28.03;58.43;99687.78;5518558;32;32847;-71
2022/08/22 11:59:22;;;;;;;7.25;4.28;;;;;;;26.66;64.72;99689.72;5551001;32;34639;-70
2022/08/22 12:02:47;;;;;;;10.38;4.60;;;;;;;25.70;68.65;99685.22;5550216;32;34411;-70
2022/08/22 12:06:04;;;;;;;9.57;4.70;;;;;;;25.44;73.30;99681.00;5549869;32;33226;-72
2022/08/22 12:09:28;;;;;;;6.87;4.97;;;;;;;25.08;74.84;99678.50;5550893;32;34297;-70
2022/08/22 12:12:51;;;;;;;8.13;4.82;;;;;;;24.98;76.53;99680.50;5549999;32;33303;-71
2022/08/22 12:16:41;;;;;;;7.00;4.70;;;;;;;25.15;76.86;99678.22;5550932;32;34669;-70
2022/08/22 12:20:17;;;;;;;12.18;4.78;;;;;;;25.41;73.88;99678.88;5547583;32;34058;-70
2022/08/22 12:23:46;;;;;;;6.70;4.30;;;;;;;25.70;74.08;99677.06;5550932;32;34295;-70
2022/08/22 12:27:07;;;;;;;8.90;4.47;;;;;;;26.77;68.30;99672.16;5550114;32;33897;-70
2022/08/22 12:30:35;;;;;;;9.52;5.05;;;;;;;27.12;64.16;99679.06;5550079;32;33071;-70
2022/08/22 12:33:53;;;;;;;8.35;4.80;;;;;;;27.37;64.65;99680.63;5549748;32;33579;-70
2022/08/22 12:37:14;;;;;;;8.70;4.47;;;;;;;27.65;64.16;99676.13;5549661;32;32863;-71
2022/08/22 12:40:53;;;;;;;8.80;4.13;;;;;;;30.13;55.96;99670.97;5550196;32;33866;-71
2022/08/22 12:44:35;;;;;;;5.40;4.12;;;;;;;30.72;51.78;99666.06;5550739;32;35242;-71
2022/08/22 12:47:54;;;;;;;7.47;4.20;;;;;;;30.68;52.94;99665.91;5549890;32;33642;-71
2022/08/22 12:51:24;;;;;;;6.65;4.10;;;;;;;29.48;55.97;99659.75;5549769;32;32838;-71
2022/08/22 12:54:26;;;;;;;6.55;3.87;;;;;;;29.09;57.64;99657.63;5550357;32;34184;-71
2022/08/22 12:57:40;;;;;;;8.55;3.72;;;;;;;29.11;56.43;99653.44;5550354;32;33915;-71
2022/08/22 13:00:47;;;;;;;6.68;4.30;;;;;;;29.52;56.95;99658.00;5550176;32;33993;-71
2022/08/22 13:03:55;;;;;;;5.57;4.37;;;;;;;29.95;53.70;99656.41;5549198;32;33442;-71
2022/08/22 13:06:58;;;;;;;;;;;;;;;31.45;50.23;99652.34;5550146;32;33631;-71
2022/08/22 13:10:29;;;;;;;6.28;3.95;;;;;;;34.30;43.07;99652.28;5536879;32;35010;-70
2022/08/22 13:13:43;;;;;;;5.43;3.60;;;;;;;32.62;46.38;99648.34;5550193;32;34661;-72
2022/08/22 13:17:04;;;;;;;6.95;3.90;;;;;;;31.15;49.50;99639.59;5550293;32;33892;-70
2022/08/22 13:20:30;;;;;;;8.52;4.12;;;;;;;29.74;54.53;99636.13;5549342;32;32644;-69
2022/08/22 13:23:45;;;;;;;8.55;5.65;;;;;;;28.86;57.99;99638.44;5536519;32;33389;-69
2022/08/22 13:26:58;;;;;;;9.52;5.85;;;;;;;27.79;63.15;99647.00;5550081;32;34120;-70
2022/08/22 13:30:23;;;;;;;10.63;6.45;;;;;;;27.29;66.99;99650.53;5550026;32;33951;-69
2022/08/22 13:33:33;;;;;;;11.57;6.40;;;;;;;26.94;69.24;99651.84;5550093;32;34656;-70
2022/08/22 13:36:46;;;;;;;10.82;7.03;;;;;;;26.24;74.63;99659.72;5549114;32;32381;-70
2022/08/22 13:40:00;;;;;;;14.60;7.25;;;;;;;25.81;77.22;99664.97;5511490;32;33493;-69
2022/08/22 13:43:11;;;;;;;14.57;7.93;;;;;;;25.49;78.97;99670.12;5550019;32;33907;-70
2022/08/22 13:46:24;;;;;;;17.92;8.40;;;;;;;24.35;89.46;99676.62;5549349;32;33895;-73
2022/08/22 13:49:39;;;;;;;20.48;9.10;;;;;;;23.33;100.00;99683.91;5549324;32;33258;-73
2022/08/22 13:52:48;;;;;;;17.12;10.48;;;;;;;22.81;100.00;99695.63;5549875;32;34390;-73
2022/08/22 13:56:23;;;;;;;13.57;9.40;;;;;;;22.37;100.00;99686.19;5548771;32;34213;-72
2022/08/22 13:59:36;;;;;;;14.05;8.73;;;;;;;21.94;100.00;99677.25;5548650;32;34954;-70
2022/08/22 14:03:17;;;;;;;15.20;8.82;;;;;;;21.29;100.00;99676.66;5549590;32;34150;-70
2022/08/22 14:06:26;;;;;;;12.55;8.60;;;;;;;21.09;100.00;99674.53;5550138;32;34059;-70
2022/08/22 14:10:10;;;;;;;15.82;9.30;;;;;;;21.07;100.00;99671.25;5549450;32;34607;-71
2022/08/22 14:13:31;;;;;;;16.55;10.02;;;;;;;21.25;100.00;99668.28;5549152;32;34701;-71
2022/08/22 14:16:46;;;;;;;13.25;8.85;;;;;;;21.59;100.00;99672.34;5549314;32;34274;-70
2022/08/22 14:20:10;;;;;;;12.13;8.98;;;;;;;21.91;100.00;99666.97;5549121;32;34600;-70
2022/08/22 14:23:23;;;;;;;13.85;9.15;;;;;;;22.23;100.00;99664.22;5548151;32;32454;-70
2022/08/22 14:26:34;;;;;;;13.62;9.45;;;;;;;22.44;100.00;99655.16;5534998;32;34464;-70
2022/08/22 14:29:56;;;;;;;12.68;8.45;;;;;;;22.53;100.00;99658.97;5548871;32;34607;-70
2022/08/22 14:33:37;;;;;;;13.20;8.50;;;;;;;22.54;100.00;99657.91;5548672;32;34271;-72
2022/08/22 14:36:56;;;;;;;13.85;8.32;;;;;;;21.95;100.00;99656.47;5548753;32;34277;-73
2022/08/22 14:40:10;;;;;;;11.15;6.32;;;;;;;21.51;100.00;99651.22;5548176;32;32651;-73
2022/08/22 14:43:34;;;;;;;7.20;4.75;;;;;;;21.15;100.00;99647.41;5549156;32;34325;-74
2022/08/22 14:46:56;;;;;;;5.15;3.20;;;;;;;20.83;100.00;99665.34;5536097;32;32735;-73
2022/08/22 14:50:08;;;;;;;5.43;3.58;;;;;;;20.74;100.00;99674.94;5548622;32;34324;-71
2022/08/22 14:53:33;;;;;;;4.18;3.00;;;;;;;20.69;100.00;99673.00;5550536;32;33244;-70
2022/08/22 14:56:37;;;;;;;7.28;2.15;;;;;;;20.74;100.00;99673.06;5550794;32;32368;-70
2022/08/22 14:59:42;;;;;;;3.60;1.95;;;;;;;20.81;100.00;99668.31;5550317;32;34624;-70
2022/08/22 15:02:45;;;;;;;3.22;1.62;;;;;;;20.89;100.00;99667.03;5551305;32;34532;-70
2022/08/22 15:05:50;;;;;;;2.05;1.60;;;;;;;21.21;100.00;99664.44;5550959;32;34431;-69
2022/08/22 15:08:53;;;;;;;3.12;1.77;;;;;;;21.49;100.00;99669.59;5551689;32;34044;-70
2022/08/22 15:11:58;;;;;;;4.40;1.90;;;;;;;21.65;100.00;99665.13;5551128;32;34095;-70
2022/08/22 15:15:11;;;;;;;1.80;1.60;;;;;;;21.75;100.00;99665.19;5550591;32;33210;-70
2022/08/22 15:18:35;;;;;;;4.28;1.70;;;;;;;21.80;100.00;99681.44;5550732;32;33295;-71
2022/08/22 15:21:38;;;;;;;3.05;1.70;;;;;;;21.85;100.00;99681.47;5551577;32;35182;-71
2022/08/22 15:25:00;;;;;;;3.67;1.90;;;;;;;21.71;100.00;99687.56;5550420;32;34070;-69
2022/08/22 15:28:16;;;;;;;;;;;;;;;21.97;100.00;99687.56;5551774;32;34604;-68
2022/08/22 15:31:23;;;;;;;2.37;1.50;;;;;;;22.10;100.00;99686.28;5550201;32;33242;-68
2022/08/22 15:34:38;;;;;;;5.20;1.80;;;;;;;22.08;100.00;99681.13;5550773;32;33974;-70